sensor_id;sensor_type;location;lat;lon;timestamp;temperature;humidity
1391;DHT22;690;51.454;7.194;2023-06-10T00:01:38;17.80;99.90
1391;DHT22;690;51.454;7.194;2023-06-10T00:04:05;17.80;99.90
1391;DHT22;690;51.454;7.194;2023-06-10T00:06:32;17.70;99.90
1391;DHT22;690;51.454;7.194;2023-06-10T00:09:02;17.70;99.90
1391;DHT22;690;51.454;7.194;2023-06-10T00:11:30;17.70;99.90
1391;DHT22;690;51.454;7.194;2023-06-10T00:13:57;17.70;99.90
1391;DHT22;690;51.454;7.194;2023-06-10T00:16:24;17.60;99.90
1391;DHT22;690;51.454;7.194;2023-06-10T00:18:52;17.50;99.90
1391;DHT22;690;51.454;7.194;2023-06-10T00:21:21;17.50;99.90
1391;DHT22;690;51.454;7.194;2023-06-10T00:23:50;17.40;99.90
1391;DHT22;690;51.454;7.194;2023-06-10T00:26:17;17.40;99.90
1391;DHT22;690;51.454;7.194;2023-06-10T00:28:44;17.40;99.90
1391;DHT22;690;51.454;7.194;2023-06-10T00:31:11;17.40;99.90
1391;DHT22;690;51.454;7.194;2023-06-10T00:33:38;17.30;99.90
1391;DHT22;690;51.454;7.194;2023-06-10T00:36:06;17.30;99.90
1391;DHT22;690;51.454;7.194;2023-06-10T00:38:33;17.20;99.90
1391;DHT22;690;51.454;7.194;2023-06-10T00:41:00;17.10;99.90
1391;DHT22;690;51.454;7.194;2023-06-10T00:43:27;17.00;99.90
1391;DHT22;690;51.454;7.194;2023-06-10T00:45:54;17.00;99.90
1391;DHT22;690;51.454;7.194;2023-06-10T00:48:21;17.00;99.90
1391;DHT22;690;51.454;7.194;2023-06-10T00:50:48;16.90;99.90
1391;DHT22;690;51.454;7.194;2023-06-10T00:53:17;16.90;99.90
1391;DHT22;690;51.454;7.194;2023-06-10T00:55:44;16.90;99.90
1391;DHT22;690;51.454;7.194;2023-06-10T00:58:11;16.80;99.90
1391;DHT22;690;51.454;7.194;2023-06-10T01:00:39;16.70;99.90
1391;DHT22;690;51.454;7.194;2023-06-10T01:03:06;16.70;99.90
1391;DHT22;690;51.454;7.194;2023-06-10T01:05:34;16.60;99.90
1391;DHT22;690;51.454;7.194;2023-06-10T01:08:09;16.50;99.90
1391;DHT22;690;51.454;7.194;2023-06-10T01:10:43;16.50;99.90
1391;DHT22;690;51.454;7.194;2023-06-10T01:13:15;16.50;99.90
1391;DHT22;690;51.454;7.194;2023-06-10T01:15:44;16.50;99.90
1391;DHT22;690;51.454;7.194;2023-06-10T01:18:10;16.40;99.90
1391;DHT22;690;51.454;7.194;2023-06-10T01:20:41;16.40;99.90
1391;DHT22;690;51.454;7.194;2023-06-10T01:23:10;16.30;99.90
1391;DHT22;690;51.454;7.194;2023-06-10T01:25:38;16.30;99.90
1391;DHT22;690;51.454;7.194;2023-06-10T01:28:11;16.30;99.90
1391;DHT22;690;51.454;7.194;2023-06-10T01:30:47;16.20;99.90
1391;DHT22;690;51.454;7.194;2023-06-10T01:33:19;16.10;99.90
1391;DHT22;690;51.454;7.194;2023-06-10T01:35:50;16.10;99.90
1391;DHT22;690;51.454;7.194;2023-06-10T01:38:20;16.00;99.90
1391;DHT22;690;51.454;7.194;2023-06-10T01:40:48;16.00;99.90
1391;DHT22;690;51.454;7.194;2023-06-10T01:43:16;15.90;99.90
1391;DHT22;690;51.454;7.194;2023-06-10T01:45:42;15.80;99.90
1391;DHT22;690;51.454;7.194;2023-06-10T01:48:09;15.80;99.90
1391;DHT22;690;51.454;7.194;2023-06-10T01:50:36;15.80;99.90
1391;DHT22;690;51.454;7.194;2023-06-10T01:53:03;15.70;99.90
1391;DHT22;690;51.454;7.194;2023-06-10T01:55:32;15.70;99.90
1391;DHT22;690;51.454;7.194;2023-06-10T01:57:59;15.70;99.90
1391;DHT22;690;51.454;7.194;2023-06-10T02:00:25;15.70;99.90
1391;DHT22;690;51.454;7.194;2023-06-10T02:02:52;15.70;99.90
1391;DHT22;690;51.454;7.194;2023-06-10T02:05:21;15.70;99.90
1391;DHT22;690;51.454;7.194;2023-06-10T02:07:48;15.60;99.90
1391;DHT22;690;51.454;7.194;2023-06-10T02:10:15;15.60;99.90
1391;DHT22;690;51.454;7.194;2023-06-10T02:12:47;15.50;99.90
1391;DHT22;690;51.454;7.194;2023-06-10T02:15:15;15.50;99.90
1391;DHT22;690;51.454;7.194;2023-06-10T02:17:51;15.50;99.90
1391;DHT22;690;51.454;7.194;2023-06-10T02:20:22;15.50;99.90
1391;DHT22;690;51.454;7.194;2023-06-10T02:22:49;15.40;99.90
1391;DHT22;690;51.454;7.194;2023-06-10T02:25:16;15.40;99.90
1391;DHT22;690;51.454;7.194;2023-06-10T02:27:48;15.40;99.90
1391;DHT22;690;51.454;7.194;2023-06-10T02:30:15;15.40;99.90
1391;DHT22;690;51.454;7.194;2023-06-10T02:32:42;15.40;99.90
1391;DHT22;690;51.454;7.194;2023-06-10T02:35:13;15.30;99.90
1391;DHT22;690;51.454;7.194;2023-06-10T02:37:40;15.30;99.90
1391;DHT22;690;51.454;7.194;2023-06-10T02:40:08;15.20;99.90
1391;DHT22;690;51.454;7.194;2023-06-10T02:42:35;15.20;99.90
1391;DHT22;690;51.454;7.194;2023-06-10T02:45:05;15.20;99.90
1391;DHT22;690;51.454;7.194;2023-06-10T02:47:32;15.20;99.90
1391;DHT22;690;51.454;7.194;2023-06-10T02:49:58;15.20;99.90
1391;DHT22;690;51.454;7.194;2023-06-10T02:52:25;15.20;99.90
1391;DHT22;690;51.454;7.194;2023-06-10T02:54:52;15.20;99.90
1391;DHT22;690;51.454;7.194;2023-06-10T02:57:19;15.20;99.90
1391;DHT22;690;51.454;7.194;2023-06-10T02:59:46;15.20;99.90
1391;DHT22;690;51.454;7.194;2023-06-10T03:02:14;15.20;99.90
1391;DHT22;690;51.454;7.194;2023-06-10T03:04:41;15.20;99.90
1391;DHT22;690;51.454;7.194;2023-06-10T03:07:09;15.20;99.90
1391;DHT22;690;51.454;7.194;2023-06-10T03:09:36;15.20;99.90
1391;DHT22;690;51.454;7.194;2023-06-10T03:12:04;15.20;99.90
1391;DHT22;690;51.454;7.194;2023-06-10T03:14:31;15.20;99.90
1391;DHT22;690;51.454;7.194;2023-06-10T03:17:00;15.20;99.90
1391;DHT22;690;51.454;7.194;2023-06-10T03:19:28;15.20;99.90
1391;DHT22;690;51.454;7.194;2023-06-10T03:22:07;15.20;99.90
1391;DHT22;690;51.454;7.194;2023-06-10T03:24:34;15.20;99.90
1391;DHT22;690;51.454;7.194;2023-06-10T03:27:02;15.20;99.90
1391;DHT22;690;51.454;7.194;2023-06-10T03:29:30;15.10;99.90
1391;DHT22;690;51.454;7.194;2023-06-10T03:31:57;15.10;99.90
1391;DHT22;690;51.454;7.194;2023-06-10T03:34:24;15.00;99.90
1391;DHT22;690;51.454;7.194;2023-06-10T03:36:53;14.90;99.90
1391;DHT22;690;51.454;7.194;2023-06-10T03:39:19;14.90;99.90
1391;DHT22;690;51.454;7.194;2023-06-10T03:41:46;14.90;99.90
1391;DHT22;690;51.454;7.194;2023-06-10T03:44:14;14.90;99.90
1391;DHT22;690;51.454;7.194;2023-06-10T03:46:40;14.90;99.90
1391;DHT22;690;51.454;7.194;2023-06-10T03:49:07;14.90;99.90
1391;DHT22;690;51.454;7.194;2023-06-10T03:51:35;14.80;99.90
1391;DHT22;690;51.454;7.194;2023-06-10T03:54:04;14.80;99.90
1391;DHT22;690;51.454;7.194;2023-06-10T03:56:31;14.80;99.90
1391;DHT22;690;51.454;7.194;2023-06-10T03:58:58;14.80;99.90
1391;DHT22;690;51.454;7.194;2023-06-10T04:01:25;14.80;99.90
1391;DHT22;690;51.454;7.194;2023-06-10T04:03:53;14.80;99.90
1391;DHT22;690;51.454;7.194;2023-06-10T04:06:20;14.70;99.90
1391;DHT22;690;51.454;7.194;2023-06-10T04:08:50;14.70;99.90
1391;DHT22;690;51.454;7.194;2023-06-10T04:11:18;14.70;99.90
1391;DHT22;690;51.454;7.194;2023-06-10T04:13:46;14.70;99.90
1391;DHT22;690;51.454;7.194;2023-06-10T04:16:14;14.70;99.90
1391;DHT22;690;51.454;7.194;2023-06-10T04:18:41;14.70;99.90
1391;DHT22;690;51.454;7.194;2023-06-10T04:21:08;14.70;99.90
1391;DHT22;690;51.454;7.194;2023-06-10T04:23:35;14.70;99.90
1391;DHT22;690;51.454;7.194;2023-06-10T04:26:04;14.70;99.90
1391;DHT22;690;51.454;7.194;2023-06-10T04:28:32;14.80;99.90
1391;DHT22;690;51.454;7.194;2023-06-10T04:30:59;14.80;99.90
1391;DHT22;690;51.454;7.194;2023-06-10T04:33:27;14.80;99.90
1391;DHT22;690;51.454;7.194;2023-06-10T04:35:54;14.90;99.90
1391;DHT22;690;51.454;7.194;2023-06-10T04:38:21;14.90;99.90
1391;DHT22;690;51.454;7.194;2023-06-10T04:40:48;15.00;99.90
1391;DHT22;690;51.454;7.194;2023-06-10T04:43:15;15.10;99.90
1391;DHT22;690;51.454;7.194;2023-06-10T04:45:43;15.20;99.90
1391;DHT22;690;51.454;7.194;2023-06-10T04:48:10;15.30;99.90
1391;DHT22;690;51.454;7.194;2023-06-10T04:50:37;15.30;99.90
1391;DHT22;690;51.454;7.194;2023-06-10T04:53:04;15.40;99.90
1391;DHT22;690;51.454;7.194;2023-06-10T04:55:32;15.50;99.90
1391;DHT22;690;51.454;7.194;2023-06-10T04:57:59;15.50;99.90
1391;DHT22;690;51.454;7.194;2023-06-10T05:00:26;15.60;99.90
1391;DHT22;690;51.454;7.194;2023-06-10T05:02:55;15.70;99.90
1391;DHT22;690;51.454;7.194;2023-06-10T05:05:22;15.80;99.90
1391;DHT22;690;51.454;7.194;2023-06-10T05:07:49;15.90;99.90
1391;DHT22;690;51.454;7.194;2023-06-10T05:10:15;15.90;99.90
1391;DHT22;690;51.454;7.194;2023-06-10T05:12:42;16.00;99.90
1391;DHT22;690;51.454;7.194;2023-06-10T05:15:10;16.00;99.90
1391;DHT22;690;51.454;7.194;2023-06-10T05:17:37;16.10;99.90
1391;DHT22;690;51.454;7.194;2023-06-10T05:20:07;16.20;99.90
1391;DHT22;690;51.454;7.194;2023-06-10T05:22:34;16.20;99.90
1391;DHT22;690;51.454;7.194;2023-06-10T05:25:01;16.30;99.90
1391;DHT22;690;51.454;7.194;2023-06-10T05:27:28;16.40;99.90
1391;DHT22;690;51.454;7.194;2023-06-10T05:29:55;16.50;99.90
1391;DHT22;690;51.454;7.194;2023-06-10T05:32:22;16.50;99.90
1391;DHT22;690;51.454;7.194;2023-06-10T05:34:49;16.60;99.90
1391;DHT22;690;51.454;7.194;2023-06-10T05:37:17;16.70;99.90
1391;DHT22;690;51.454;7.194;2023-06-10T05:39:44;16.70;99.90
1391;DHT22;690;51.454;7.194;2023-06-10T05:42:11;16.80;99.90
1391;DHT22;690;51.454;7.194;2023-06-10T05:44:37;16.80;99.90
1391;DHT22;690;51.454;7.194;2023-06-10T05:47:05;16.90;99.90
1391;DHT22;690;51.454;7.194;2023-06-10T05:49:32;16.90;99.90
1391;DHT22;690;51.454;7.194;2023-06-10T05:51:58;17.00;99.90
1391;DHT22;690;51.454;7.194;2023-06-10T05:54:27;17.00;99.90
1391;DHT22;690;51.454;7.194;2023-06-10T05:56:54;17.10;99.90
1391;DHT22;690;51.454;7.194;2023-06-10T05:59:20;17.10;99.90
1391;DHT22;690;51.454;7.194;2023-06-10T06:01:48;17.20;99.90
1391;DHT22;690;51.454;7.194;2023-06-10T06:04:15;17.30;99.90
1391;DHT22;690;51.454;7.194;2023-06-10T06:06:42;17.40;99.90
1391;DHT22;690;51.454;7.194;2023-06-10T06:09:09;17.50;99.90
1391;DHT22;690;51.454;7.194;2023-06-10T06:11:37;17.60;99.90
1391;DHT22;690;51.454;7.194;2023-06-10T06:14:04;17.60;99.90
1391;DHT22;690;51.454;7.194;2023-06-10T06:16:32;17.60;99.90
1391;DHT22;690;51.454;7.194;2023-06-10T06:18:59;17.70;99.90
1391;DHT22;690;51.454;7.194;2023-06-10T06:21:25;17.70;99.90
1391;DHT22;690;51.454;7.194;2023-06-10T06:23:52;17.80;99.90
1391;DHT22;690;51.454;7.194;2023-06-10T06:26:19;17.90;99.90
1391;DHT22;690;51.454;7.194;2023-06-10T06:28:47;17.90;99.90
1391;DHT22;690;51.454;7.194;2023-06-10T06:31:14;18.00;99.90
1391;DHT22;690;51.454;7.194;2023-06-10T06:33:41;18.10;99.90
1391;DHT22;690;51.454;7.194;2023-06-10T06:36:08;18.10;99.90
1391;DHT22;690;51.454;7.194;2023-06-10T06:38:35;18.20;99.90
1391;DHT22;690;51.454;7.194;2023-06-10T06:41:02;18.30;99.90
1391;DHT22;690;51.454;7.194;2023-06-10T06:43:32;18.50;99.90
1391;DHT22;690;51.454;7.194;2023-06-10T06:46:00;18.50;99.90
1391;DHT22;690;51.454;7.194;2023-06-10T06:48:27;18.50;99.90
1391;DHT22;690;51.454;7.194;2023-06-10T06:50:54;18.60;99.90
1391;DHT22;690;51.454;7.194;2023-06-10T06:53:22;18.80;99.90
1391;DHT22;690;51.454;7.194;2023-06-10T06:55:49;18.90;99.90
1391;DHT22;690;51.454;7.194;2023-06-10T06:58:15;19.00;99.90
1391;DHT22;690;51.454;7.194;2023-06-10T07:00:42;19.10;99.90
1391;DHT22;690;51.454;7.194;2023-06-10T07:03:11;19.20;99.90
1391;DHT22;690;51.454;7.194;2023-06-10T07:05:38;19.30;99.90
1391;DHT22;690;51.454;7.194;2023-06-10T07:08:05;19.40;99.90
1391;DHT22;690;51.454;7.194;2023-06-10T07:10:32;19.40;99.90
1391;DHT22;690;51.454;7.194;2023-06-10T07:12:59;19.40;99.90
1391;DHT22;690;51.454;7.194;2023-06-10T07:15:26;19.40;99.90
1391;DHT22;690;51.454;7.194;2023-06-10T07:17:53;19.50;99.90
1391;DHT22;690;51.454;7.194;2023-06-10T07:20:22;19.60;99.90
1391;DHT22;690;51.454;7.194;2023-06-10T07:22:49;19.70;99.90
1391;DHT22;690;51.454;7.194;2023-06-10T07:25:16;19.80;99.90
1391;DHT22;690;51.454;7.194;2023-06-10T07:27:43;19.90;99.90
1391;DHT22;690;51.454;7.194;2023-06-10T07:30:10;20.00;99.90
1391;DHT22;690;51.454;7.194;2023-06-10T07:32:37;20.00;99.90
1391;DHT22;690;51.454;7.194;2023-06-10T07:35:08;20.20;99.90
1391;DHT22;690;51.454;7.194;2023-06-10T07:37:36;20.30;99.90
1391;DHT22;690;51.454;7.194;2023-06-10T07:40:04;20.40;99.90
1391;DHT22;690;51.454;7.194;2023-06-10T07:42:31;20.50;99.90
1391;DHT22;690;51.454;7.194;2023-06-10T07:44:58;20.60;99.90
1391;DHT22;690;51.454;7.194;2023-06-10T07:47:25;20.70;99.90
1391;DHT22;690;51.454;7.194;2023-06-10T07:49:52;20.80;99.90
1391;DHT22;690;51.454;7.194;2023-06-10T07:52:19;20.90;99.90
1391;DHT22;690;51.454;7.194;2023-06-10T07:54:47;21.00;99.90
1391;DHT22;690;51.454;7.194;2023-06-10T07:57:15;21.00;99.90
1391;DHT22;690;51.454;7.194;2023-06-10T07:59:42;21.00;99.90
1391;DHT22;690;51.454;7.194;2023-06-10T08:02:11;21.10;99.90
1391;DHT22;690;51.454;7.194;2023-06-10T08:04:37;21.10;99.90
1391;DHT22;690;51.454;7.194;2023-06-10T08:07:05;21.20;99.90
1391;DHT22;690;51.454;7.194;2023-06-10T08:09:32;21.30;99.90
1391;DHT22;690;51.454;7.194;2023-06-10T08:12:00;21.30;99.90
1391;DHT22;690;51.454;7.194;2023-06-10T08:14:27;21.40;99.90
1391;DHT22;690;51.454;7.194;2023-06-10T08:16:54;21.50;99.90
1391;DHT22;690;51.454;7.194;2023-06-10T08:19:21;21.70;99.90
1391;DHT22;690;51.454;7.194;2023-06-10T08:21:47;21.80;99.90
1391;DHT22;690;51.454;7.194;2023-06-10T08:24:14;21.80;99.90
1391;DHT22;690;51.454;7.194;2023-06-10T08:26:43;21.80;99.90
1391;DHT22;690;51.454;7.194;2023-06-10T08:29:13;22.00;99.90
1391;DHT22;690;51.454;7.194;2023-06-10T08:31:41;22.10;99.90
1391;DHT22;690;51.454;7.194;2023-06-10T08:34:09;22.20;99.90
1391;DHT22;690;51.454;7.194;2023-06-10T08:36:36;22.30;99.90
1391;DHT22;690;51.454;7.194;2023-06-10T08:39:03;22.30;99.90
1391;DHT22;690;51.454;7.194;2023-06-10T08:41:33;22.30;99.90
1391;DHT22;690;51.454;7.194;2023-06-10T08:44:07;22.30;99.90
1391;DHT22;690;51.454;7.194;2023-06-10T08:46:36;22.50;99.90
1391;DHT22;690;51.454;7.194;2023-06-10T08:49:05;22.60;99.90
1391;DHT22;690;51.454;7.194;2023-06-10T08:51:34;22.70;99.90
1391;DHT22;690;51.454;7.194;2023-06-10T08:54:05;22.80;99.90
1391;DHT22;690;51.454;7.194;2023-06-10T08:56:39;22.90;99.90
1391;DHT22;690;51.454;7.194;2023-06-10T08:59:06;23.00;99.90
1391;DHT22;690;51.454;7.194;2023-06-10T09:01:34;23.10;99.90
1391;DHT22;690;51.454;7.194;2023-06-10T09:04:03;23.10;99.90
1391;DHT22;690;51.454;7.194;2023-06-10T09:06:31;23.10;99.90
1391;DHT22;690;51.454;7.194;2023-06-10T09:08:59;23.20;99.90
1391;DHT22;690;51.454;7.194;2023-06-10T09:11:26;23.20;99.90
1391;DHT22;690;51.454;7.194;2023-06-10T09:13:53;23.30;99.90
1391;DHT22;690;51.454;7.194;2023-06-10T09:16:20;23.40;99.90
1391;DHT22;690;51.454;7.194;2023-06-10T09:18:47;23.50;99.90
1391;DHT22;690;51.454;7.194;2023-06-10T09:21:21;23.50;99.90
1391;DHT22;690;51.454;7.194;2023-06-10T09:23:49;23.60;99.90
1391;DHT22;690;51.454;7.194;2023-06-10T09:26:16;23.70;99.90
1391;DHT22;690;51.454;7.194;2023-06-10T09:28:43;23.80;99.90
1391;DHT22;690;51.454;7.194;2023-06-10T09:31:11;23.90;99.90
1391;DHT22;690;51.454;7.194;2023-06-10T09:33:40;24.00;99.90
1391;DHT22;690;51.454;7.194;2023-06-10T09:36:07;24.10;99.90
1391;DHT22;690;51.454;7.194;2023-06-10T09:38:35;24.10;99.90
1391;DHT22;690;51.454;7.194;2023-06-10T09:41:03;24.10;99.90
1391;DHT22;690;51.454;7.194;2023-06-10T09:43:40;24.20;99.90
1391;DHT22;690;51.454;7.194;2023-06-10T09:46:14;24.30;99.90
1391;DHT22;690;51.454;7.194;2023-06-10T09:48:43;24.40;99.90
1391;DHT22;690;51.454;7.194;2023-06-10T09:51:10;24.50;99.90
1391;DHT22;690;51.454;7.194;2023-06-10T09:53:39;24.70;99.90
1391;DHT22;690;51.454;7.194;2023-06-10T09:56:06;24.80;99.90
1391;DHT22;690;51.454;7.194;2023-06-10T09:58:37;24.80;99.90
1391;DHT22;690;51.454;7.194;2023-06-10T10:01:05;24.90;99.90
1391;DHT22;690;51.454;7.194;2023-06-10T10:03:32;24.90;99.90
1391;DHT22;690;51.454;7.194;2023-06-10T10:06:00;25.00;99.90
1391;DHT22;690;51.454;7.194;2023-06-10T10:08:27;25.10;99.90
1391;DHT22;690;51.454;7.194;2023-06-10T10:10:56;25.10;99.90
1391;DHT22;690;51.454;7.194;2023-06-10T10:13:25;25.20;99.90
1391;DHT22;690;51.454;7.194;2023-06-10T10:15:54;25.20;99.90
1391;DHT22;690;51.454;7.194;2023-06-10T10:18:24;25.30;99.90
1391;DHT22;690;51.454;7.194;2023-06-10T10:20:54;25.50;99.90
1391;DHT22;690;51.454;7.194;2023-06-10T10:23:26;25.60;99.90
1391;DHT22;690;51.454;7.194;2023-06-10T10:26:00;25.70;99.90
1391;DHT22;690;51.454;7.194;2023-06-10T10:28:39;25.70;99.90
1391;DHT22;690;51.454;7.194;2023-06-10T10:31:08;25.80;99.90
1391;DHT22;690;51.454;7.194;2023-06-10T10:33:45;25.90;99.90
1391;DHT22;690;51.454;7.194;2023-06-10T10:36:16;25.90;99.90
1391;DHT22;690;51.454;7.194;2023-06-10T10:38:46;25.90;99.90
1391;DHT22;690;51.454;7.194;2023-06-10T10:41:16;25.90;99.90
1391;DHT22;690;51.454;7.194;2023-06-10T10:43:44;26.00;99.90
1391;DHT22;690;51.454;7.194;2023-06-10T10:46:13;26.00;99.90
1391;DHT22;690;51.454;7.194;2023-06-10T10:48:40;26.00;99.90
1391;DHT22;690;51.454;7.194;2023-06-10T10:51:08;26.00;99.90
1391;DHT22;690;51.454;7.194;2023-06-10T10:53:37;26.00;99.90
1391;DHT22;690;51.454;7.194;2023-06-10T10:56:12;26.10;99.90
1391;DHT22;690;51.454;7.194;2023-06-10T10:58:41;26.20;99.90
1391;DHT22;690;51.454;7.194;2023-06-10T11:01:11;26.30;99.90
1391;DHT22;690;51.454;7.194;2023-06-10T11:03:45;26.30;99.90
1391;DHT22;690;51.454;7.194;2023-06-10T11:06:14;26.40;99.90
1391;DHT22;690;51.454;7.194;2023-06-10T11:08:48;26.50;99.90
1391;DHT22;690;51.454;7.194;2023-06-10T11:11:20;26.40;99.90
1391;DHT22;690;51.454;7.194;2023-06-10T11:14:07;26.40;99.90
1391;DHT22;690;51.454;7.194;2023-06-10T11:16:41;26.50;99.90
1391;DHT22;690;51.454;7.194;2023-06-10T11:19:08;26.50;99.90
1391;DHT22;690;51.454;7.194;2023-06-10T11:21:59;26.50;99.90
1391;DHT22;690;51.454;7.194;2023-06-10T11:24:26;26.50;99.90
1391;DHT22;690;51.454;7.194;2023-06-10T11:26:53;26.60;99.90
1391;DHT22;690;51.454;7.194;2023-06-10T11:29:21;26.60;99.90
1391;DHT22;690;51.454;7.194;2023-06-10T11:31:50;26.70;99.90
1391;DHT22;690;51.454;7.194;2023-06-10T11:34:22;26.70;99.90
1391;DHT22;690;51.454;7.194;2023-06-10T11:36:51;26.80;99.90
1391;DHT22;690;51.454;7.194;2023-06-10T11:39:20;26.80;99.90
1391;DHT22;690;51.454;7.194;2023-06-10T11:41:51;26.80;99.90
1391;DHT22;690;51.454;7.194;2023-06-10T11:44:18;26.90;99.90
1391;DHT22;690;51.454;7.194;2023-06-10T11:46:48;26.90;99.90
1391;DHT22;690;51.454;7.194;2023-06-10T11:52:39;27.10;99.90
1391;DHT22;690;51.454;7.194;2023-06-10T11:55:07;27.20;99.90
1391;DHT22;690;51.454;7.194;2023-06-10T11:57:34;27.20;99.90
1391;DHT22;690;51.454;7.194;2023-06-10T12:00:04;27.30;99.90
1391;DHT22;690;51.454;7.194;2023-06-10T12:02:32;27.30;99.90
1391;DHT22;690;51.454;7.194;2023-06-10T12:05:10;27.30;99.90
1391;DHT22;690;51.454;7.194;2023-06-10T12:07:38;27.20;99.90
1391;DHT22;690;51.454;7.194;2023-06-10T12:10:06;27.30;99.90
1391;DHT22;690;51.454;7.194;2023-06-10T12:12:34;27.20;99.90
1391;DHT22;690;51.454;7.194;2023-06-10T12:15:02;27.30;99.90
1391;DHT22;690;51.454;7.194;2023-06-10T12:17:37;27.40;99.90
1391;DHT22;690;51.454;7.194;2023-06-10T12:20:06;27.40;99.90
1391;DHT22;690;51.454;7.194;2023-06-10T12:22:39;27.50;99.90
1391;DHT22;690;51.454;7.194;2023-06-10T12:25:07;27.60;99.90
1391;DHT22;690;51.454;7.194;2023-06-10T12:27:35;27.70;99.90
1391;DHT22;690;51.454;7.194;2023-06-10T12:30:04;27.80;99.90
1391;DHT22;690;51.454;7.194;2023-06-10T12:32:39;27.90;99.90
1391;DHT22;690;51.454;7.194;2023-06-10T12:35:07;27.90;99.90
1391;DHT22;690;51.454;7.194;2023-06-10T12:37:35;28.00;99.90
1391;DHT22;690;51.454;7.194;2023-06-10T12:40:05;27.90;99.90
1391;DHT22;690;51.454;7.194;2023-06-10T12:42:35;27.90;99.90
1391;DHT22;690;51.454;7.194;2023-06-10T12:45:03;27.80;99.90
1391;DHT22;690;51.454;7.194;2023-06-10T12:47:33;27.80;99.90
1391;DHT22;690;51.454;7.194;2023-06-10T12:50:04;27.80;99.90
1391;DHT22;690;51.454;7.194;2023-06-10T12:52:31;27.90;99.90
1391;DHT22;690;51.454;7.194;2023-06-10T12:54:58;27.90;99.90
1391;DHT22;690;51.454;7.194;2023-06-10T12:57:27;27.90;99.90
1391;DHT22;690;51.454;7.194;2023-06-10T12:59:55;28.00;99.90
1391;DHT22;690;51.454;7.194;2023-06-10T13:02:28;28.10;99.90
1391;DHT22;690;51.454;7.194;2023-06-10T13:04:55;28.20;99.90
1391;DHT22;690;51.454;7.194;2023-06-10T13:07:22;28.30;99.90
1391;DHT22;690;51.454;7.194;2023-06-10T13:09:49;28.30;99.90
1391;DHT22;690;51.454;7.194;2023-06-10T13:12:16;28.30;99.90
1391;DHT22;690;51.454;7.194;2023-06-10T13:14:45;28.30;99.90
1391;DHT22;690;51.454;7.194;2023-06-10T13:17:12;28.20;99.90
1391;DHT22;690;51.454;7.194;2023-06-10T13:19:40;28.20;99.90
1391;DHT22;690;51.454;7.194;2023-06-10T13:22:07;28.30;99.90
1391;DHT22;690;51.454;7.194;2023-06-10T13:24:33;28.30;99.90
1391;DHT22;690;51.454;7.194;2023-06-10T13:27:00;28.30;99.90
1391;DHT22;690;51.454;7.194;2023-06-10T13:29:27;28.40;99.90
1391;DHT22;690;51.454;7.194;2023-06-10T13:31:55;28.50;99.90
1391;DHT22;690;51.454;7.194;2023-06-10T13:34:22;28.60;99.90
1391;DHT22;690;51.454;7.194;2023-06-10T13:36:49;28.60;99.90
1391;DHT22;690;51.454;7.194;2023-06-10T13:39:16;28.50;99.90
1391;DHT22;690;51.454;7.194;2023-06-10T13:41:43;28.50;99.90
1391;DHT22;690;51.454;7.194;2023-06-10T13:44:11;28.60;99.90
1391;DHT22;690;51.454;7.194;2023-06-10T13:46:38;28.60;99.90
1391;DHT22;690;51.454;7.194;2023-06-10T13:49:06;28.60;99.90
1391;DHT22;690;51.454;7.194;2023-06-10T13:51:33;28.50;99.90
1391;DHT22;690;51.454;7.194;2023-06-10T13:54:00;28.50;99.90
1391;DHT22;690;51.454;7.194;2023-06-10T13:56:28;28.70;99.90
1391;DHT22;690;51.454;7.194;2023-06-10T13:58:55;28.70;99.90
1391;DHT22;690;51.454;7.194;2023-06-10T14:01:21;28.70;99.90
1391;DHT22;690;51.454;7.194;2023-06-10T14:03:48;28.70;99.90
1391;DHT22;690;51.454;7.194;2023-06-10T14:06:17;28.80;99.90
1391;DHT22;690;51.454;7.194;2023-06-10T14:08:44;28.90;99.90
1391;DHT22;690;51.454;7.194;2023-06-10T14:11:11;28.90;99.90
1391;DHT22;690;51.454;7.194;2023-06-10T14:13:38;28.90;99.90
1391;DHT22;690;51.454;7.194;2023-06-10T14:16:05;28.90;99.90
1391;DHT22;690;51.454;7.194;2023-06-10T14:18:32;28.90;99.90
1391;DHT22;690;51.454;7.194;2023-06-10T14:20:59;29.00;99.90
1391;DHT22;690;51.454;7.194;2023-06-10T14:23:27;29.10;99.90
1391;DHT22;690;51.454;7.194;2023-06-10T14:25:54;29.00;99.90
1391;DHT22;690;51.454;7.194;2023-06-10T14:28:21;29.00;99.90
1391;DHT22;690;51.454;7.194;2023-06-10T14:30:49;29.10;99.90
1391;DHT22;690;51.454;7.194;2023-06-10T14:33:16;29.00;99.90
1391;DHT22;690;51.454;7.194;2023-06-10T14:35:43;29.10;99.90
1391;DHT22;690;51.454;7.194;2023-06-10T14:38:10;29.00;99.90
1391;DHT22;690;51.454;7.194;2023-06-10T14:40:38;28.90;99.90
1391;DHT22;690;51.454;7.194;2023-06-10T14:43:05;28.90;99.90
1391;DHT22;690;51.454;7.194;2023-06-10T14:45:35;28.90;99.90
1391;DHT22;690;51.454;7.194;2023-06-10T14:48:02;28.90;99.90
1391;DHT22;690;51.454;7.194;2023-06-10T14:50:34;29.10;99.90
1391;DHT22;690;51.454;7.194;2023-06-10T14:53:01;29.10;99.90
1391;DHT22;690;51.454;7.194;2023-06-10T14:55:28;29.10;99.90
1391;DHT22;690;51.454;7.194;2023-06-10T14:57:56;29.20;99.90
1391;DHT22;690;51.454;7.194;2023-06-10T15:00:23;29.20;99.90
1391;DHT22;690;51.454;7.194;2023-06-10T15:02:51;29.20;99.90
1391;DHT22;690;51.454;7.194;2023-06-10T15:05:18;29.30;99.90
1391;DHT22;690;51.454;7.194;2023-06-10T15:07:46;29.40;99.90
1391;DHT22;690;51.454;7.194;2023-06-10T15:10:13;29.50;99.90
1391;DHT22;690;51.454;7.194;2023-06-10T15:12:41;29.60;99.90
1391;DHT22;690;51.454;7.194;2023-06-10T15:15:09;29.80;99.90
1391;DHT22;690;51.454;7.194;2023-06-10T15:17:36;29.90;99.90
1391;DHT22;690;51.454;7.194;2023-06-10T15:20:04;30.20;99.90
1391;DHT22;690;51.454;7.194;2023-06-10T15:22:32;30.50;99.90
1391;DHT22;690;51.454;7.194;2023-06-10T15:24:59;31.20;99.90
1391;DHT22;690;51.454;7.194;2023-06-10T15:27:26;32.20;99.90
1391;DHT22;690;51.454;7.194;2023-06-10T15:29:53;33.30;99.90
1391;DHT22;690;51.454;7.194;2023-06-10T15:32:21;34.70;99.90
1391;DHT22;690;51.454;7.194;2023-06-10T15:34:48;36.00;99.90
1391;DHT22;690;51.454;7.194;2023-06-10T15:37:16;37.30;99.90
1391;DHT22;690;51.454;7.194;2023-06-10T15:39:43;38.30;99.90
1391;DHT22;690;51.454;7.194;2023-06-10T15:42:10;39.30;99.90
1391;DHT22;690;51.454;7.194;2023-06-10T15:44:37;39.90;99.90
1391;DHT22;690;51.454;7.194;2023-06-10T15:47:04;40.00;99.90
1391;DHT22;690;51.454;7.194;2023-06-10T15:49:32;40.20;99.90
1391;DHT22;690;51.454;7.194;2023-06-10T15:51:59;40.60;99.90
1391;DHT22;690;51.454;7.194;2023-06-10T15:54:26;40.80;99.90
1391;DHT22;690;51.454;7.194;2023-06-10T15:56:53;40.70;99.90
1391;DHT22;690;51.454;7.194;2023-06-10T15:59:20;40.70;99.90
1391;DHT22;690;51.454;7.194;2023-06-10T16:01:47;40.50;99.90
1391;DHT22;690;51.454;7.194;2023-06-10T16:04:14;40.50;99.90
1391;DHT22;690;51.454;7.194;2023-06-10T16:06:42;41.10;99.90
1391;DHT22;690;51.454;7.194;2023-06-10T16:09:09;41.90;99.90
1391;DHT22;690;51.454;7.194;2023-06-10T16:11:36;42.60;99.90
1391;DHT22;690;51.454;7.194;2023-06-10T16:14:03;42.70;99.90
1391;DHT22;690;51.454;7.194;2023-06-10T16:16:30;42.80;99.90
1391;DHT22;690;51.454;7.194;2023-06-10T16:18:57;43.00;99.90
1391;DHT22;690;51.454;7.194;2023-06-10T16:21:25;43.20;99.90
1391;DHT22;690;51.454;7.194;2023-06-10T16:23:53;43.10;99.90
1391;DHT22;690;51.454;7.194;2023-06-10T16:26:20;43.20;99.90